Time;durP1;ratioP1;P1;durP2;ratioP2;P2;SDS_P1;SDS_P2;PMS_P1;PMS_P2;Temp;Humidity;BMP_temperature;BMP_pressure;BME280_temperature;BME280_humidity;BME280_pressure;Samples;Min_cycle;Max_cycle;Signal;HPM_P1;HPM_P2
2022/05/10 00:00:31;;;;;;;8.38;3.38;;;;;;;14.69;44.04;101110.59;4975903;28;97036;-81
2022/05/10 00:02:58;;;;;;;9.35;4.43;;;;;;;14.68;44.41;101118.56;4975962;28;99047;-80
2022/05/10 00:05:35;;;;;;;7.50;4.13;;;;;;;14.55;43.92;101104.09;4955481;28;101945;-80
2022/05/10 00:08:03;;;;;;;8.40;3.67;;;;;;;14.58;44.31;101112.78;4968303;28;96714;-80
2022/05/10 00:10:29;;;;;;;5.68;3.28;;;;;;;14.48;44.84;101120.13;4992876;28;96780;-80
2022/05/10 00:12:59;;;;;;;11.90;3.63;;;;;;;14.56;44.65;101111.97;4975972;28;98583;-80
2022/05/10 00:15:24;;;;;;;11.55;4.78;;;;;;;14.45;44.62;101107.03;4992057;28;97554;-80
2022/05/10 00:17:50;;;;;;;8.27;3.88;;;;;;;14.20;44.47;101064.84;4976024;28;96943;-80
2022/05/10 00:20:19;;;;;;;9.95;3.80;;;;;;;14.51;44.82;101116.50;4971802;28;97217;-80
2022/05/10 00:22:45;;;;;;;11.07;4.45;;;;;;;14.42;45.10;101101.88;4973734;28;98141;-80
2022/05/10 00:25:18;;;;;;;10.52;3.97;;;;;;;14.18;45.73;101106.28;4958206;28;100614;-81
2022/05/10 00:27:44;;;;;;;10.30;4.00;;;;;;;14.29;45.59;101103.25;4959567;28;96766;-80
2022/05/10 00:30:11;;;;;;;6.75;3.83;;;;;;;14.23;45.44;101096.44;4991979;28;97444;-80
2022/05/10 00:32:37;;;;;;;7.82;3.60;;;;;;;14.14;46.03;101095.91;4991799;28;98064;-80
2022/05/10 00:35:04;;;;;;;11.05;4.32;;;;;;;13.98;46.30;101072.69;4958563;28;101067;-80
2022/05/10 00:37:31;;;;;;;9.82;3.65;;;;;;;14.01;45.99;101092.84;4959399;28;96703;-80
2022/05/10 00:39:56;;;;;;;10.25;4.20;;;;;;;13.96;45.91;101085.09;4972040;28;96814;-80
2022/05/10 00:42:35;;;;;;;9.85;5.22;;;;;;;14.04;45.99;101080.38;4970740;28;101390;-80
2022/05/10 00:45:04;;;;;;;9.30;3.75;;;;;;;14.00;46.06;101089.34;4973967;28;101113;-80
2022/05/10 00:47:43;;;;;;;7.50;3.65;;;;;;;14.02;46.04;101090.16;4959923;28;96767;-80
2022/05/10 00:50:17;;;;;;;6.45;3.67;;;;;;;13.92;46.57;101086.13;4955802;28;96995;-80
2022/05/10 00:52:47;;;;;;;7.45;4.22;;;;;;;14.00;46.37;101085.84;4970785;28;97372;-80
2022/05/10 00:55:37;;;;;;;10.68;3.70;;;;;;;13.84;46.40;101077.59;4986743;28;98092;-80
2022/05/10 00:58:18;;;;;;;7.25;3.70;;;;;;;13.75;46.43;101062.09;4991957;28;97397;-80
2022/05/10 01:00:44;;;;;;;11.95;4.00;;;;;;;13.78;47.05;101070.75;4964781;28;97187;-81
2022/05/10 01:03:44;;;;;;;9.30;3.88;;;;;;;13.80;46.58;101053.09;4974224;28;101957;-80
2022/05/10 01:06:32;;;;;;;7.40;3.88;;;;;;;13.77;47.15;101069.06;4990372;28;101613;-82
2022/05/10 01:09:17;;;;;;;9.95;4.22;;;;;;;13.58;47.56;101070.59;4991207;28;96756;-80
2022/05/10 01:11:48;;;;;;;11.82;4.13;;;;;;;13.65;47.43;101071.28;4991848;28;97076;-81
2022/05/10 01:14:31;;;;;;;11.88;4.60;;;;;;;13.45;48.06;101056.13;4973934;28;99395;-80
2022/05/10 01:16:57;;;;;;;9.40;4.63;;;;;;;13.57;47.77;101060.97;4974850;28;101372;-80
2022/05/10 01:19:23;;;;;;;11.10;5.70;;;;;;;13.18;48.29;101024.47;4990961;28;96753;-80
2022/05/10 01:21:48;;;;;;;12.93;6.15;;;;;;;13.37;48.27;101066.94;4971789;28;97339;-80
2022/05/10 01:24:29;;;;;;;14.88;6.88;;;;;;;13.23;48.46;101059.44;4985404;28;101275;-80
2022/05/10 01:26:57;;;;;;;12.87;6.53;;;;;;;13.40;48.50;101058.06;4993290;28;97434;-81
2022/05/10 01:29:28;;;;;;;12.77;6.93;;;;;;;13.34;48.34;101038.88;4990674;28;97306;-81
2022/05/10 01:34:42;;;;;;;15.32;7.70;;;;;;;13.29;48.22;101051.38;4988646;28;97664;-83
2022/05/10 01:37:14;;;;;;;11.25;6.45;;;;;;;13.17;48.29;101030.66;4958518;28;100817;-82
2022/05/10 01:39:47;;;;;;;13.30;6.07;;;;;;;13.23;48.56;101034.84;4974298;28;96828;-83
2022/05/10 01:42:19;;;;;;;9.75;6.43;;;;;;;13.08;48.77;101042.34;4960863;28;97546;-83
2022/05/10 01:44:55;;;;;;;10.95;5.75;;;;;;;12.91;49.28;101020.97;4964543;28;97396;-82
2022/05/10 01:47:33;;;;;;;10.55;5.28;;;;;;;12.74;49.80;101012.75;4988870;28;101453;-82
2022/05/10 01:50:14;;;;;;;11.05;5.78;;;;;;;12.99;49.26;101045.31;4974489;28;97440;-82
2022/05/10 01:53:16;;;;;;;8.30;5.03;;;;;;;13.03;49.14;101039.03;4974703;28;97191;-83
2022/05/10 01:55:46;;;;;;;11.63;5.10;;;;;;;12.71;49.87;101005.78;4990824;28;97461;-83
2022/05/10 01:58:22;;;;;;;16.33;5.43;;;;;;;12.82;49.48;101011.59;4971517;28;101191;-82
2022/05/10 02:00:55;;;;;;;10.30;5.05;;;;;;;12.91;49.32;101035.03;4970437;28;97181;-82
2022/05/10 02:03:37;;;;;;;9.52;5.50;;;;;;;12.85;49.95;101016.75;4973546;28;96969;-82
2022/05/10 02:06:24;;;;;;;16.33;5.30;;;;;;;13.01;49.90;101037.34;4970489;28;101164;-82
2022/05/10 02:09:07;;;;;;;10.55;5.03;;;;;;;12.69;50.75;101032.19;4978082;28;101415;-82
2022/05/10 02:11:47;;;;;;;12.23;4.78;;;;;;;12.81;50.19;101033.59;4974448;28;97316;-83
2022/05/10 02:14:35;;;;;;;10.75;5.45;;;;;;;12.81;50.30;101032.72;4970161;28;97262;-82
2022/05/10 02:17:14;;;;;;;11.65;4.93;;;;;;;12.84;50.34;101022.09;4959164;28;101315;-82
2022/05/10 02:19:54;;;;;;;6.32;4.05;;;;;;;12.69;50.48;101026.06;4958178;28;101374;-82
2022/05/10 02:22:40;;;;;;;12.32;5.82;;;;;;;12.65;50.53;101025.31;4957744;28;96918;-83
2022/05/10 02:25:11;;;;;;;11.50;4.57;;;;;;;12.69;50.87;101024.31;4979288;28;96707;-82
2022/05/10 02:27:52;;;;;;;9.38;5.10;;;;;;;12.51;51.14;101008.19;4972773;28;100814;-82
2022/05/10 02:30:23;;;;;;;15.60;4.73;;;;;;;12.60;50.52;101010.56;4989813;28;98332;-82
2022/05/10 02:33:07;;;;;;;11.77;4.57;;;;;;;12.54;51.34;101019.53;4990589;28;97242;-82
2022/05/10 02:35:36;;;;;;;9.77;4.45;;;;;;;12.38;51.30;100994.56;4990898;28;96780;-83
2022/05/10 02:38:03;;;;;;;13.30;5.03;;;;;;;12.51;50.72;101024.88;4970593;28;101430;-82
2022/05/10 02:40:32;;;;;;;9.13;4.18;;;;;;;12.45;51.19;101014.53;4973785;28;101588;-83
2022/05/10 02:42:57;;;;;;;10.95;4.70;;;;;;;12.46;51.60;101017.13;4973567;28;96648;-82
2022/05/10 02:45:23;;;;;;;9.20;3.97;;;;;;;12.30;51.64;100989.53;4956975;28;97319;-82
2022/05/10 02:47:49;;;;;;;8.98;4.38;;;;;;;12.45;51.40;101017.19;4974276;28;97478;-82
2022/05/10 02:50:20;;;;;;;9.05;4.43;;;;;;;12.28;51.32;100994.00;4955794;28;101825;-82
2022/05/10 02:52:46;;;;;;;10.18;5.07;;;;;;;12.27;51.65;101017.72;4993142;28;97150;-82
2022/05/10 02:55:16;;;;;;;10.40;4.43;;;;;;;12.26;51.71;101006.31;4975559;28;97248;-82
2022/05/10 02:57:42;;;;;;;6.43;4.05;;;;;;;12.29;52.16;101015.91;4974146;28;98087;-82
2022/05/10 03:00:08;;;;;;;9.07;4.13;;;;;;;12.24;52.30;101013.41;4989344;28;97347;-82
2022/05/10 03:02:40;;;;;;;10.63;5.00;;;;;;;12.20;52.13;101001.25;4993780;28;97067;-82
2022/05/10 03:05:08;;;;;;;8.30;4.63;;;;;;;12.41;51.51;101016.38;4972902;28;97588;-82
2022/05/10 03:07:33;;;;;;;14.75;4.38;;;;;;;12.48;51.43;101011.81;4984549;28;98063;-82
2022/05/10 03:09:59;;;;;;;8.05;5.15;;;;;;;12.31;51.94;101019.38;4973507;28;97339;-82
2022/05/10 03:12:24;;;;;;;11.15;5.10;;;;;;;12.30;52.10;101015.84;4965882;28;97210;-82
2022/05/10 03:14:56;;;;;;;11.23;4.63;;;;;;;12.05;52.53;101006.97;4974255;28;97328;-82
2022/05/10 03:17:22;;;;;;;8.32;4.30;;;;;;;12.18;52.67;101016.22;4972673;28;101357;-82
2022/05/10 03:19:48;;;;;;;10.73;4.78;;;;;;;11.88;52.43;100979.38;4990947;28;101841;-82
2022/05/10 03:22:13;;;;;;;10.13;4.57;;;;;;;12.10;52.85;101013.84;4992610;28;96638;-82
2022/05/10 03:24:39;;;;;;;11.20;4.00;;;;;;;12.06;52.88;101006.06;4993512;28;96749;-82
2022/05/10 03:27:09;;;;;;;7.20;4.40;;;;;;;12.26;52.29;101000.22;4993188;28;101370;-82
2022/05/10 03:29:36;;;;;;;7.00;3.97;;;;;;;12.16;52.43;101015.41;4959601;28;101280;-82
2022/05/10 03:32:02;;;;;;;10.93;4.57;;;;;;;11.96;52.76;101010.75;4956739;28;97174;-82
2022/05/10 03:37:12;;;;;;;12.20;4.53;;;;;;;12.09;52.88;101019.97;4993972;28;97474;-82
2022/05/10 03:39:37;;;;;;;11.38;4.63;;;;;;;12.06;52.86;101003.44;4972681;28;98075;-82
2022/05/10 03:42:03;;;;;;;11.20;4.30;;;;;;;12.07;52.79;101005.13;4962274;28;96787;-82
2022/05/10 03:44:33;;;;;;;11.40;4.55;;;;;;;11.98;53.33;101011.53;4975575;28;96969;-82
2022/05/10 03:47:03;;;;;;;11.00;6.15;;;;;;;11.75;52.88;100970.94;4959672;28;101336;-82
2022/05/10 03:49:29;;;;;;;13.57;4.80;;;;;;;12.05;53.58;101023.63;4992473;28;97931;-82
2022/05/10 03:51:56;;;;;;;9.77;4.50;;;;;;;12.01;53.02;101008.81;4976197;28;97282;-82
2022/05/10 03:54:22;;;;;;;9.32;4.57;;;;;;;12.07;53.03;100992.88;4975798;28;97542;-82
2022/05/10 03:56:48;;;;;;;12.57;5.07;;;;;;;12.28;52.27;101020.31;4974815;28;98200;-82
2022/05/10 03:59:14;;;;;;;15.15;5.40;;;;;;;12.32;52.44;101003.50;4955575;28;100897;-82
2022/05/10 04:01:39;;;;;;;12.60;5.07;;;;;;;12.33;52.19;101010.47;4970213;28;96777;-82
2022/05/10 04:04:06;;;;;;;7.57;4.47;;;;;;;12.13;52.45;100989.16;4976053;28;96765;-82
2022/05/10 04:06:32;;;;;;;14.77;6.43;;;;;;;12.37;52.26;101016.53;4958558;28;101451;-82
2022/05/10 04:08:57;;;;;;;9.38;5.05;;;;;;;12.36;52.00;101004.25;4975652;28;98339;-82
2022/05/10 04:11:23;;;;;;;10.45;5.07;;;;;;;12.21;52.57;101008.22;4991845;28;97838;-82
2022/05/10 04:13:49;;;;;;;11.35;5.00;;;;;;;12.41;51.90;101005.00;4975573;28;97109;-82
2022/05/10 04:16:14;;;;;;;13.07;5.18;;;;;;;12.38;52.09;101003.31;4992261;28;97431;-82
2022/05/10 04:18:40;;;;;;;10.10;5.15;;;;;;;12.38;51.49;100979.63;4991645;28;101442;-82
2022/05/10 04:21:06;;;;;;;15.48;5.07;;;;;;;12.60;51.86;101005.31;4993010;28;97110;-82
2022/05/10 04:23:32;;;;;;;11.65;4.53;;;;;;;12.71;51.83;100997.03;4946871;28;97099;-82
2022/05/10 04:26:06;;;;;;;8.88;5.10;;;;;;;12.94;51.08;100994.50;4980464;28;97993;-82
2022/05/10 04:28:33;;;;;;;12.63;4.70;;;;;;;13.25;50.21;100981.19;4991449;28;98319;-82
2022/05/10 04:30:58;;;;;;;14.60;4.40;;;;;;;13.25;50.62;100981.19;4975044;28;97377;-82
2022/05/10 04:33:24;;;;;;;17.02;5.20;;;;;;;13.37;50.06;100982.53;4991783;28;97359;-83
2022/05/10 04:35:49;;;;;;;12.48;5.22;;;;;;;13.65;49.83;100990.34;4993419;28;97241;-82
2022/05/10 04:38:16;;;;;;;12.25;4.63;;;;;;;13.69;50.01;101001.63;4964144;28;101285;-82
2022/05/10 04:43:27;;;;;;;10.73;4.65;;;;;;;13.86;48.92;100956.16;4985467;28;97071;-80
2022/05/10 04:45:52;;;;;;;8.43;4.55;;;;;;;14.16;48.50;100991.94;4975027;28;100310;-81
2022/05/10 04:48:18;;;;;;;14.90;4.40;;;;;;;14.41;47.91;101005.06;4991775;28;98463;-80
2022/05/10 04:50:43;;;;;;;14.35;4.72;;;;;;;14.64;47.78;101004.19;4992008;28;97179;-80
2022/05/10 04:53:09;;;;;;;9.40;4.38;;;;;;;15.16;47.09;100998.56;4975014;28;96829;-80
2022/05/10 04:55:35;;;;;;;11.02;4.57;;;;;;;15.49;46.12;101004.16;4957668;28;101150;-80
2022/05/10 04:58:00;;;;;;;12.43;4.68;;;;;;;15.32;46.37;101004.88;4974476;28;101348;-80
2022/05/10 05:00:29;;;;;;;8.18;5.28;;;;;;;15.37;45.80;100987.03;4973895;28;97225;-80
2022/05/10 05:02:55;;;;;;;8.35;4.78;;;;;;;15.39;46.01;101000.22;4971952;28;96909;-80
2022/05/10 05:05:21;;;;;;;8.70;4.32;;;;;;;15.64;45.93;101005.28;4991335;28;98002;-80
2022/05/10 05:07:47;;;;;;;10.85;5.22;;;;;;;15.82;44.77;101001.88;4992186;28;97342;-80
2022/05/10 05:10:12;;;;;;;12.55;4.72;;;;;;;16.08;44.51;101007.75;4990818;28;96587;-80
2022/05/10 05:12:38;;;;;;;9.80;4.57;;;;;;;16.03;44.31;101000.03;4971844;28;97274;-80
2022/05/10 05:15:06;;;;;;;11.07;4.63;;;;;;;16.26;43.63;100996.31;4991163;28;101547;-80
2022/05/10 05:17:32;;;;;;;10.95;4.95;;;;;;;16.26;43.58;100993.66;4971996;28;101333;-80
2022/05/10 05:19:57;;;;;;;11.48;5.22;;;;;;;16.54;42.92;101002.94;4973043;28;96679;-80
2022/05/10 05:22:23;;;;;;;9.80;4.53;;;;;;;16.91;42.58;101007.34;4967258;28;97356;-80
2022/05/10 05:24:48;;;;;;;8.48;4.90;;;;;;;17.58;41.17;101004.84;4957835;28;101442;-80
2022/05/10 05:27:14;;;;;;;9.75;4.78;;;;;;;17.91;40.60;100996.03;4973344;28;101334;-80
2022/05/10 05:29:39;;;;;;;9.55;5.10;;;;;;;18.71;38.92;100998.66;4991367;28;96737;-81
2022/05/10 05:32:07;;;;;;;6.75;4.50;;;;;;;19.49;37.63;100997.66;4961181;28;97158;-80
2022/05/10 05:34:35;;;;;;;12.73;5.53;;;;;;;20.70;35.93;100987.41;4970374;28;101594;-81
2022/05/10 05:39:44;;;;;;;11.32;4.68;;;;;;;22.52;32.84;100988.13;4973484;28;97154;-80
2022/05/10 05:42:10;;;;;;;8.73;4.60;;;;;;;23.07;32.14;100990.31;4960776;28;97607;-81
2022/05/10 05:44:35;;;;;;;12.43;4.88;;;;;;;23.87;30.90;100993.06;4969710;28;100652;-81
2022/05/10 05:47:01;;;;;;;7.15;4.43;;;;;;;24.34;30.35;100991.91;4973133;28;98113;-81
2022/05/10 05:49:27;;;;;;;9.90;4.95;;;;;;;24.60;30.32;100987.13;4970478;28;96740;-81
2022/05/10 05:51:56;;;;;;;10.50;5.10;;;;;;;25.44;29.22;100970.28;4990419;28;96944;-82
2022/05/10 05:54:22;;;;;;;6.50;4.83;;;;;;;26.61;27.87;100974.25;4948507;28;102059;-81
2022/05/10 05:56:48;;;;;;;7.28;5.45;;;;;;;26.81;27.56;100977.81;4973599;28;97320;-81
2022/05/10 05:59:13;;;;;;;11.55;4.97;;;;;;;26.95;27.18;100963.91;4972738;28;97221;-81
2022/05/10 06:01:39;;;;;;;9.40;4.80;;;;;;;28.21;26.18;100963.53;4982868;28;97195;-81
2022/05/10 06:04:04;;;;;;;15.63;5.22;;;;;;;28.95;25.27;100967.03;4986669;28;98588;-81
2022/05/10 06:06:30;;;;;;;9.98;4.68;;;;;;;29.60;24.62;100957.69;4990135;28;97823;-81
2022/05/10 06:08:55;;;;;;;12.52;4.63;;;;;;;29.80;24.40;100958.34;4990322;28;96614;-81
2022/05/10 06:11:21;;;;;;;9.85;5.20;;;;;;;29.10;24.79;100962.78;4953796;28;96945;-80
2022/05/10 06:13:46;;;;;;;12.13;5.93;;;;;;;28.91;24.90;100952.13;4954804;28;101942;-81
2022/05/10 06:16:12;;;;;;;7.32;4.75;;;;;;;29.67;24.69;100945.25;4984492;28;100977;-81
2022/05/10 06:18:37;;;;;;;13.18;5.28;;;;;;;30.24;24.13;100953.63;4954922;28;97350;-81
2022/05/10 06:21:03;;;;;;;13.10;5.38;;;;;;;30.41;24.05;100924.72;4971414;28;97369;-83
2022/05/10 06:23:29;;;;;;;11.10;5.70;;;;;;;30.54;23.63;100948.59;4990914;28;98086;-83
2022/05/10 06:25:54;;;;;;;7.35;5.03;;;;;;;31.47;22.57;100940.13;4973916;28;100872;-82
2022/05/10 06:28:20;;;;;;;10.05;5.45;;;;;;;31.58;23.22;100943.31;4972232;28;97301;-84
2022/05/10 06:30:47;;;;;;;12.10;5.53;;;;;;;31.55;23.01;100931.97;4969860;28;97229;-80
2022/05/10 06:33:13;;;;;;;9.45;5.68;;;;;;;31.83;22.40;100942.41;4949261;28;101503;-84
2022/05/10 06:35:39;;;;;;;13.27;5.43;;;;;;;32.08;22.18;100933.13;4975494;28;101476;-84
2022/05/10 06:38:27;;;;;;;10.35;5.00;;;;;;;32.97;21.79;100929.97;4984812;28;97828;-82
2022/05/10 06:40:53;;;;;;;11.48;5.43;;;;;;;33.65;20.78;100917.22;4945254;28;97759;-82
2022/05/10 06:43:19;;;;;;;11.23;6.03;;;;;;;32.98;21.71;100907.19;4965155;28;101082;-83
2022/05/10 06:45:46;;;;;;;11.45;5.53;;;;;;;33.07;21.33;100904.22;4983606;28;101242;-83
2022/05/10 06:48:12;;;;;;;13.32;6.85;;;;;;;32.96;21.20;100909.25;4990906;28;97243;-83
2022/05/10 06:50:38;;;;;;;8.95;5.57;;;;;;;33.09;21.43;100923.09;4980740;28;97274;-82
2022/05/10 06:53:05;;;;;;;9.63;5.15;;;;;;;32.90;21.66;100916.25;4981786;28;101514;-82
2022/05/10 06:55:32;;;;;;;11.02;5.80;;;;;;;33.64;20.80;100915.56;4956073;28;101352;-82
2022/05/10 06:57:59;;;;;;;13.00;5.50;;;;;;;33.40;21.42;100903.06;4972110;28;96839;-80
2022/05/10 07:00:24;;;;;;;14.77;5.38;;;;;;;35.10;20.15;100912.53;4981202;28;97162;-80
2022/05/10 07:02:50;;;;;;;7.53;4.50;;;;;;;34.21;20.36;100909.34;4967348;28;101088;-81
2022/05/10 07:05:17;;;;;;;8.95;5.53;;;;;;;35.27;19.55;100913.06;4973215;28;101318;-81
2022/05/10 07:07:43;;;;;;;8.45;5.00;;;;;;;34.47;20.07;100915.09;4973186;28;96742;-81
2022/05/10 07:10:11;;;;;;;9.57;5.60;;;;;;;34.19;20.85;100882.31;4991978;28;97393;-80
2022/05/10 07:12:38;;;;;;;15.90;5.63;;;;;;;34.48;20.62;100889.50;4965280;28;97715;-77
2022/05/10 07:15:06;;;;;;;9.40;6.13;;;;;;;35.23;19.81;100914.50;4989845;28;98884;-77
2022/05/10 07:17:32;;;;;;;9.25;5.38;;;;;;;35.37;19.72;100904.50;4988791;28;97344;-76
2022/05/10 07:19:58;;;;;;;8.02;4.68;;;;;;;34.69;20.34;100899.59;4992409;28;97290;-80
2022/05/10 07:22:25;;;;;;;9.25;5.13;;;;;;;34.86;20.03;100886.50;4973887;28;97671;-76
2022/05/10 07:24:51;;;;;;;7.72;4.82;;;;;;;34.94;19.97;100885.53;4976868;28;99476;-77
2022/05/10 07:27:17;;;;;;;9.77;5.50;;;;;;;36.50;18.93;100881.19;4964650;28;97015;-77
2022/05/10 07:29:43;;;;;;;9.00;5.15;;;;;;;36.38;18.87;100891.06;5004704;28;97010;-79
2022/05/10 07:32:09;;;;;;;8.68;5.00;;;;;;;35.65;19.73;100893.56;4986278;28;100475;-83
2022/05/10 07:34:34;;;;;;;9.77;5.30;;;;;;;35.19;19.90;100882.38;4990439;28;97849;-78
2022/05/10 07:37:00;;;;;;;9.52;4.88;;;;;;;35.85;19.46;100879.16;4992728;28;96770;-77
2022/05/10 07:39:26;;;;;;;7.85;5.10;;;;;;;36.26;19.69;100882.63;4993542;28;96929;-79
2022/05/10 07:41:54;;;;;;;7.90;5.47;;;;;;;36.14;18.99;100884.31;4975178;28;97368;-84
2022/05/10 07:44:22;;;;;;;11.93;5.53;;;;;;;37.74;18.42;100881.47;4975101;28;97279;-83
2022/05/10 07:46:48;;;;;;;8.70;4.70;;;;;;;36.96;18.46;100876.78;4985744;28;97673;-78
2022/05/10 07:49:13;;;;;;;12.02;5.60;;;;;;;36.33;18.84;100876.34;4991737;28;97389;-78
2022/05/10 07:51:39;;;;;;;8.90;5.10;;;;;;;36.05;19.26;100880.09;4982107;28;97716;-78
2022/05/10 07:54:05;;;;;;;11.88;4.90;;;;;;;35.96;19.13;100875.84;4986807;28;97914;-78
2022/05/10 07:56:31;;;;;;;8.98;4.75;;;;;;;35.76;19.31;100868.41;4990683;28;96849;-78
2022/05/10 07:58:57;;;;;;;7.43;4.70;;;;;;;35.98;19.66;100873.72;4991417;28;97071;-78
2022/05/10 08:01:23;;;;;;;9.52;5.07;;;;;;;36.17;19.44;100874.84;4969707;28;97954;-78
2022/05/10 08:03:49;;;;;;;9.35;4.68;;;;;;;37.09;18.92;100846.72;4970650;28;102043;-79
2022/05/10 08:06:16;;;;;;;7.78;4.88;;;;;;;37.21;18.60;100863.31;4982903;28;97131;-80
2022/05/10 08:08:42;;;;;;;13.07;5.00;;;;;;;36.75;18.68;100863.38;4989844;28;97261;-80
2022/05/10 08:11:08;;;;;;;9.43;4.38;;;;;;;36.09;19.19;100854.03;4979413;28;97586;-83
2022/05/10 08:13:34;;;;;;;9.15;4.85;;;;;;;36.00;19.55;100872.47;4947626;28;100892;-84
2022/05/10 08:16:00;;;;;;;13.52;5.00;;;;;;;36.31;19.08;100835.56;4979197;28;97107;-84
2022/05/10 08:18:26;;;;;;;8.57;4.22;;;;;;;37.34;18.54;100852.31;4953707;28;97405;-83
2022/05/10 08:20:54;;;;;;;10.93;4.45;;;;;;;37.49;18.40;100851.25;4976172;28;98040;-83
2022/05/10 08:23:23;;;;;;;10.07;5.15;;;;;;;38.10;18.08;100864.44;4977015;28;101100;-83
2022/05/10 08:25:51;;;;;;;9.20;4.75;;;;;;;37.72;17.98;100864.41;4978177;28;97691;-83
2022/05/10 08:28:16;;;;;;;9.32;4.68;;;;;;;36.86;19.04;100876.41;4984593;28;96944;-82
2022/05/10 08:30:49;;;;;;;9.52;4.57;;;;;;;36.07;19.59;100856.13;4983615;28;97929;-81
2022/05/10 08:33:29;;;;;;;9.45;5.05;;;;;;;35.13;20.77;100863.00;4973501;28;97533;-83
2022/05/10 08:35:56;;;;;;;10.88;4.82;;;;;;;35.16;20.10;100861.78;4952544;28;96957;-82
2022/05/10 08:38:24;;;;;;;9.93;4.70;;;;;;;35.42;19.83;100858.34;4944974;28;97442;-82
2022/05/10 08:41:26;;;;;;;8.48;4.30;;;;;;;36.02;19.40;100855.88;4970920;28;97433;-82
2022/05/10 08:43:54;;;;;;;8.50;3.95;;;;;;;35.45;19.34;100843.47;4986279;28;101252;-81
2022/05/10 08:46:42;;;;;;;6.55;3.55;;;;;;;36.43;19.12;100831.16;4989655;28;96799;-80
2022/05/10 08:49:17;;;;;;;8.55;4.30;;;;;;;37.76;17.98;100843.72;4971692;28;97506;-80
2022/05/10 08:51:42;;;;;;;11.20;4.68;;;;;;;36.75;19.10;100841.50;4999607;28;98114;-80
2022/05/10 08:54:08;;;;;;;7.53;3.65;;;;;;;36.60;18.43;100815.22;4971945;28;97433;-80
2022/05/10 08:56:53;;;;;;;6.82;3.78;;;;;;;36.62;18.24;100836.84;4972338;28;97259;-80
2022/05/10 08:59:36;;;;;;;8.48;3.70;;;;;;;37.29;17.89;100832.94;4989430;28;97320;-81
2022/05/10 09:02:08;;;;;;;8.10;3.60;;;;;;;35.63;18.98;100821.09;4988579;28;97429;-81
2022/05/10 09:04:38;;;;;;;7.07;3.67;;;;;;;36.23;18.62;100830.31;4988408;28;97410;-80
2022/05/10 09:07:23;;;;;;;4.63;3.00;;;;;;;35.23;19.04;100837.25;4989114;28;97405;-80
2022/05/10 09:10:14;;;;;;;6.50;3.65;;;;;;;35.82;18.60;100829.34;4989138;28;96835;-80
2022/05/10 09:13:03;;;;;;;11.00;4.38;;;;;;;36.13;18.50;100813.47;4988692;28;98212;-81
2022/05/10 09:15:37;;;;;;;11.68;3.65;;;;;;;35.32;19.57;100822.44;4988722;28;98390;-81
2022/05/10 09:18:38;;;;;;;7.55;3.78;;;;;;;33.86;20.18;100819.31;4967862;28;96775;-80
2022/05/10 09:21:23;;;;;;;5.75;3.55;;;;;;;33.85;20.25;100814.88;4975617;28;97463;-81
2022/05/10 09:24:02;;;;;;;3.83;3.08;;;;;;;34.33;19.37;100819.81;4989354;28;97538;-81
2022/05/10 09:26:39;;;;;;;6.28;2.92;;;;;;;34.17;19.63;100823.63;4988300;28;101283;-83
2022/05/10 09:29:16;;;;;;;7.07;3.40;;;;;;;33.50;20.65;100811.09;4976897;28;96810;-81
2022/05/10 09:34:45;;;;;;;7.15;3.33;;;;;;;32.88;20.45;100807.72;4974480;28;101331;-80
2022/05/10 09:37:13;;;;;;;5.50;2.88;;;;;;;32.62;20.51;100796.44;4955298;28;101598;-80
2022/05/10 09:39:49;;;;;;;5.32;3.03;;;;;;;31.97;20.98;100776.06;4990393;28;97383;-88
2022/05/10 09:42:37;;;;;;;7.10;3.20;;;;;;;31.62;21.58;100808.19;4989079;28;98689;-87
2022/05/10 09:45:17;;;;;;;6.20;2.80;;;;;;;30.79;22.68;100798.63;4977606;28;99296;-77
2022/05/10 09:48:07;;;;;;;7.63;3.28;;;;;;;31.02;22.55;100796.00;4973037;28;97757;-80
2022/05/10 09:50:46;;;;;;;8.43;3.30;;;;;;;31.14;22.61;100788.34;4990747;28;97218;-82
2022/05/10 09:53:22;;;;;;;6.43;2.97;;;;;;;30.95;23.17;100788.75;4969865;28;96921;-82
2022/05/10 09:56:05;;;;;;;6.57;3.63;;;;;;;30.69;23.33;100789.81;4977870;28;97506;-82
2022/05/10 09:58:32;;;;;;;9.02;3.28;;;;;;;30.18;23.06;100783.72;4966941;28;98000;-82
2022/05/10 10:01:00;;;;;;;7.80;3.70;;;;;;;30.03;23.32;100774.56;4970069;28;97286;-82
2022/05/10 10:03:30;;;;;;;6.70;3.08;;;;;;;29.79;23.76;100765.41;4987368;28;97350;-81
2022/05/10 10:06:13;;;;;;;9.75;3.05;;;;;;;29.07;23.96;100764.97;4953943;28;101364;-81
2022/05/10 10:08:48;;;;;;;8.32;3.10;;;;;;;29.18;24.56;100786.31;4957335;28;97955;-81
2022/05/10 10:11:26;;;;;;;7.38;2.70;;;;;;;29.04;24.78;100784.22;4986641;28;96671;-82
2022/05/10 10:13:55;;;;;;;7.35;3.22;;;;;;;28.82;24.35;100772.91;4992168;28;96826;-81
2022/05/10 10:16:24;;;;;;;8.80;4.10;;;;;;;28.06;25.32;100768.09;4991714;28;97638;-79
2022/05/10 10:18:56;;;;;;;11.57;3.15;;;;;;;27.64;25.97;100760.59;4990239;28;97914;-79
2022/05/10 10:21:34;;;;;;;7.75;3.28;;;;;;;27.60;26.15;100775.34;4990563;28;97907;-79
2022/05/10 10:24:01;;;;;;;6.28;3.10;;;;;;;27.26;26.91;100734.72;4991214;28;97999;-79
2022/05/10 10:26:53;;;;;;;5.95;2.92;;;;;;;27.05;27.66;100748.38;4973160;28;101356;-79
2022/05/10 10:29:45;;;;;;;6.03;3.00;;;;;;;26.76;27.89;100754.75;4971833;28;101534;-80
2022/05/10 10:32:47;;;;;;;10.60;3.22;;;;;;;26.71;27.82;100756.19;4956961;28;97197;-79
2022/05/10 10:35:31;;;;;;;7.05;2.65;;;;;;;26.53;28.49;100756.06;4975333;28;96754;-79
2022/05/10 10:38:05;;;;;;;9.63;3.20;;;;;;;25.98;29.22;100724.41;4974154;28;97445;-79
2022/05/10 10:40:36;;;;;;;8.38;3.80;;;;;;;25.84;29.60;100739.13;4973539;28;101139;-78
2022/05/10 10:43:14;;;;;;;8.48;3.22;;;;;;;25.05;30.54;100736.34;4990439;28;97291;-80
2022/05/10 10:45:42;;;;;;;10.80;3.20;;;;;;;25.06;31.11;100740.72;4973650;28;96950;-79
2022/05/10 10:48:13;;;;;;;;;;;;;;;25.00;31.25;100734.06;4991063;28;98058;-79
2022/05/10 10:50:39;;;;;;;11.40;3.70;;;;;;;25.03;30.76;100730.25;4989370;28;97235;-80
2022/05/10 10:53:08;;;;;;;9.55;3.15;;;;;;;24.66;31.27;100735.31;4953678;28;96759;-80
2022/05/10 10:55:43;;;;;;;6.10;3.00;;;;;;;24.69;31.07;100727.84;4989955;28;97259;-80
2022/05/10 10:58:11;;;;;;;8.10;3.30;;;;;;;24.75;31.66;100729.97;4989914;28;97637;-79
2022/05/10 11:00:47;;;;;;;7.93;3.30;;;;;;;24.62;32.36;100730.22;4969468;28;101192;-80
2022/05/10 11:03:19;;;;;;;8.95;3.22;;;;;;;24.53;32.13;100698.81;4984811;28;97217;-80
2022/05/10 11:06:13;;;;;;;4.65;2.90;;;;;;;24.53;32.22;100727.47;4989331;28;97086;-79
2022/05/10 11:08:53;;;;;;;7.93;3.72;;;;;;;24.56;31.77;100708.44;4992591;28;97496;-78
2022/05/10 11:11:39;;;;;;;6.43;3.22;;;;;;;24.69;31.63;100716.25;4993198;28;98045;-79
2022/05/10 11:14:08;;;;;;;8.20;3.20;;;;;;;24.92;31.55;100714.25;4959535;28;96858;-79
2022/05/10 11:16:39;;;;;;;6.90;2.97;;;;;;;24.48;31.57;100705.56;4992496;28;97391;-79
2022/05/10 11:19:19;;;;;;;6.75;3.10;;;;;;;24.32;31.71;100696.13;4992397;28;100575;-79
2022/05/10 11:21:53;;;;;;;8.10;3.00;;;;;;;24.26;31.80;100701.16;4979994;28;98150;-79
2022/05/10 11:24:59;;;;;;;8.02;2.97;;;;;;;24.30;31.75;100697.22;4994366;28;96698;-79
2022/05/10 11:27:43;;;;;;;9.27;2.60;;;;;;;24.45;31.85;100687.88;4993195;28;96967;-78
2022/05/10 11:30:08;;;;;;;8.25;2.67;;;;;;;24.39;31.43;100688.38;4992394;28;98078;-78
2022/05/10 11:32:59;;;;;;;5.40;2.63;;;;;;;24.05;31.68;100671.66;4991314;28;101149;-78
2022/05/10 11:35:55;;;;;;;7.68;3.00;;;;;;;24.08;31.92;100682.97;4976123;28;97106;-79
2022/05/10 11:38:56;;;;;;;5.75;2.80;;;;;;;24.25;32.18;100676.16;4969301;28;96994;-78
2022/05/10 11:42:03;;;;;;;7.95;3.13;;;;;;;24.39;31.84;100661.56;4972199;28;97814;-82
2022/05/10 11:44:57;;;;;;;6.90;3.38;;;;;;;24.61;31.57;100669.47;4943677;28;97474;-78
2022/05/10 11:47:40;;;;;;;4.55;2.83;;;;;;;24.62;31.77;100660.44;4916131;28;97429;-81
2022/05/10 11:50:18;;;;;;;9.40;2.72;;;;;;;24.54;31.72;100640.63;4947443;28;97359;-78
2022/05/10 11:53:03;;;;;;;8.65;2.28;;;;;;;24.65;31.73;100655.78;4918364;28;101122;-80